Time;durP1;ratioP1;P1;durP2;ratioP2;P2;SDS_P1;SDS_P2;PMS_P1;PMS_P2;Temp;Humidity;BMP_temperature;BMP_pressure;BME280_temperature;BME280_humidity;BME280_pressure;Samples;Min_cycle;Max_cycle;Signal;HPM_P1;HPM_P2
2022/05/31 00:02:07;;;;;;;1.87;1.50;;;;;;;;;;6010878;29;20239;-74
2022/05/31 00:05:28;;;;;;;2.67;1.87;;;;;;;;;;6011491;29;20238;-74
2022/05/31 00:08:48;;;;;;;4.57;2.17;;;;;;;;;;5995841;29;20251;-74
2022/05/31 00:12:11;;;;;;;3.33;1.80;;;;;;;;;;5998964;29;20242;-75
2022/05/31 00:15:32;;;;;;;1.60;1.50;;;;;;;;;;5990652;29;20642;-74
2022/05/31 00:18:53;;;;;;;4.20;2.17;;;;;;;;;;6001382;29;20711;-75
2022/05/31 00:22:14;;;;;;;2.10;1.70;;;;;;;;;;5997525;29;20321;-73
2022/05/31 00:25:34;;;;;;;2.17;2.07;;;;;;;;;;6009157;29;20534;-74
2022/05/31 00:28:56;;;;;;;2.53;1.70;;;;;;;;;;6023473;29;20227;-74
2022/05/31 00:32:19;;;;;;;2.20;1.90;;;;;;;;;;6011009;29;20666;-74
2022/05/31 00:35:41;;;;;;;2.53;1.77;;;;;;;;;;6006150;29;20231;-74
2022/05/31 00:39:02;;;;;;;3.70;2.53;;;;;;;;;;6008589;29;20652;-74
2022/05/31 00:42:23;;;;;;;2.00;1.80;;;;;;;;;;6012280;29;20253;-74
2022/05/31 00:45:47;;;;;;;2.13;2.00;;;;;;;;;;6008274;29;20234;-73
2022/05/31 00:49:08;;;;;;;2.33;2.23;;;;;;;;;;6002849;29;20234;-73
2022/05/31 00:52:30;;;;;;;1.63;1.53;;;;;;;;;;6012416;29;20234;-73
2022/05/31 00:55:52;;;;;;;3.50;2.87;;;;;;;;;;6009945;29;20242;-73
2022/05/31 00:59:15;;;;;;;2.33;2.13;;;;;;;;;;6007379;29;20797;-73
2022/05/31 01:02:37;;;;;;;1.60;1.50;;;;;;;;;;6008467;29;20270;-73
2022/05/31 01:05:58;;;;;;;2.30;2.10;;;;;;;;;;6009730;29;20262;-72
2022/05/31 01:09:19;;;;;;;3.57;2.10;;;;;;;;;;6012204;29;20325;-73
2022/05/31 01:12:41;;;;;;;2.23;1.90;;;;;;;;;;6012666;29;20226;-72
2022/05/31 01:16:52;;;;;;;1.90;1.80;;;;;;;;;;5942933;29;20240;-73
2022/05/31 01:20:32;;;;;;;3.47;1.97;;;;;;;;;;5972040;29;20234;-74
2022/05/31 01:24:07;;;;;;;2.50;2.17;;;;;;;;;;6006972;29;20597;-73
2022/05/31 01:27:35;;;;;;;1.87;1.77;;;;;;;;;;6016934;29;20250;-73
2022/05/31 01:30:57;;;;;;;2.90;1.70;;;;;;;;;;6000934;29;20245;-74
2022/05/31 01:34:22;;;;;;;2.57;2.17;;;;;;;;;;6023942;29;20246;-73
2022/05/31 01:37:49;;;;;;;3.10;2.37;;;;;;;;;;6016730;29;20243;-74
2022/05/31 01:41:14;;;;;;;2.50;2.30;;;;;;;;;;6016575;29;20234;-73
2022/05/31 01:44:38;;;;;;;2.60;2.40;;;;;;;;;;6009421;29;20665;-73
2022/05/31 01:48:01;;;;;;;2.50;2.13;;;;;;;;;;6024526;29;20234;-72
2022/05/31 01:51:23;;;;;;;2.67;2.47;;;;;;;;;;6016727;29;20546;-73
2022/05/31 01:54:46;;;;;;;4.93;2.97;;;;;;;;;;6010182;29;20239;-72
2022/05/31 01:58:08;;;;;;;2.87;2.53;;;;;;;;;;6010665;29;20227;-74
2022/05/31 02:01:30;;;;;;;2.60;2.40;;;;;;;;;;6008736;29;20236;-72
2022/05/31 02:04:50;;;;;;;2.77;2.57;;;;;;;;;;6013085;29;20578;-72
2022/05/31 02:08:11;;;;;;;4.43;2.63;;;;;;;;;;6009755;29;20276;-73
2022/05/31 02:11:34;;;;;;;3.27;2.97;;;;;;;;;;6016331;29;20270;-73
2022/05/31 02:15:05;;;;;;;2.90;2.70;;;;;;;;;;6009970;29;20324;-73
2022/05/31 02:19:15;;;;;;;2.50;2.30;;;;;;;;;;6012815;29;20235;-73
2022/05/31 02:22:27;;;;;;;3.67;3.03;;;;;;;;;;6009109;29;20250;-74
2022/05/31 02:25:47;;;;;;;2.80;2.60;;;;;;;;;;6033246;29;20230;-74
2022/05/31 02:29:10;;;;;;;3.10;2.70;;;;;;;;;;6014191;29;20239;-73
2022/05/31 02:32:31;;;;;;;3.23;2.97;;;;;;;;;;6008890;29;20242;-74
2022/05/31 02:35:52;;;;;;;4.90;2.53;;;;;;;;;;6008807;29;20239;-73
2022/05/31 02:39:13;;;;;;;3.50;2.70;;;;;;;;;;6009836;29;20243;-73
2022/05/31 02:42:39;;;;;;;3.40;3.10;;;;;;;;;;6012635;29;20231;-74
2022/05/31 02:46:03;;;;;;;2.50;2.20;;;;;;;;;;6009786;29;20572;-73
2022/05/31 02:49:24;;;;;;;3.13;2.83;;;;;;;;;;6013672;29;20230;-74
2022/05/31 02:52:45;;;;;;;4.90;4.27;;;;;;;;;;6012338;29;20283;-73
2022/05/31 02:56:06;;;;;;;6.27;3.30;;;;;;;;;;6012975;29;23086;-73
2022/05/31 02:59:45;;;;;;;4.90;4.40;;;;;;;;;;6011057;29;20618;-73
2022/05/31 03:03:26;;;;;;;8.47;7.00;;;;;;;;;;6008466;29;20243;-73
2022/05/31 03:07:09;;;;;;;45.73;41.37;;;;;;;;;;6007945;29;20284;-74
2022/05/31 03:10:44;;;;;;;4.27;3.87;;;;;;;;;;6009460;29;20239;-73
2022/05/31 03:14:06;;;;;;;8.87;4.47;;;;;;;;;;6010043;29;20628;-74
2022/05/31 03:17:28;;;;;;;3.87;3.57;;;;;;;;;;6010117;29;20611;-74
2022/05/31 03:20:51;;;;;;;5.03;3.40;;;;;;;;;;5991791;29;20251;-74
2022/05/31 03:24:14;;;;;;;4.37;3.97;;;;;;;;;;6008089;29;20248;-73
2022/05/31 03:27:35;;;;;;;4.13;3.73;;;;;;;;;;6008062;29;20645;-74
2022/05/31 03:30:57;;;;;;;3.73;3.43;;;;;;;;;;6010690;29;21341;-73
2022/05/31 03:34:18;;;;;;;3.63;3.33;;;;;;;;;;6008801;29;20321;-75
2022/05/31 03:37:40;;;;;;;4.67;3.60;;;;;;;;;;6016033;29;20239;-73
2022/05/31 03:41:18;;;;;;;4.07;3.40;;;;;;;;;;6009075;29;20325;-74
2022/05/31 03:44:43;;;;;;;4.17;3.47;;;;;;;;;;6027198;29;20234;-73
2022/05/31 03:48:23;;;;;;;4.13;3.73;;;;;;;;;;6010571;29;20243;-74
2022/05/31 03:51:54;;;;;;;4.17;3.77;;;;;;;;;;6009882;29;22381;-73
2022/05/31 03:55:26;;;;;;;4.07;3.77;;;;;;;;;;6013107;29;20258;-73
2022/05/31 03:58:48;;;;;;;4.67;3.50;;;;;;;;;;6005436;29;20255;-73
2022/05/31 04:02:12;;;;;;;4.43;4.00;;;;;;;;;;6010083;29;20230;-74
2022/05/31 04:05:33;;;;;;;4.77;4.03;;;;;;;;;;6009940;29;20235;-73
2022/05/31 04:08:54;;;;;;;4.50;3.90;;;;;;;;;;6013461;29;20276;-74
2022/05/31 04:12:16;;;;;;;4.60;3.77;;;;;;;;;;6010053;29;20468;-74
2022/05/31 04:16:04;;;;;;;4.03;3.63;;;;;;;;;;6012079;29;20621;-73
2022/05/31 04:19:25;;;;;;;4.90;4.27;;;;;;;;;;6025846;29;20239;-74
2022/05/31 04:22:46;;;;;;;4.20;3.80;;;;;;;;;;6005817;29;20581;-74
2022/05/31 04:26:27;;;;;;;4.47;3.70;;;;;;;;;;6008670;29;20675;-74
2022/05/31 04:30:08;;;;;;;4.30;4.00;;;;;;;;;;6011816;29;20234;-74
2022/05/31 04:33:47;;;;;;;4.67;3.87;;;;;;;;;;6008145;29;20582;-74
2022/05/31 04:37:08;;;;;;;5.67;4.80;;;;;;;;;;6011389;29;20636;-74
2022/05/31 04:40:48;;;;;;;6.37;5.77;;;;;;;;;;6014672;29;20242;-74
2022/05/31 04:44:28;;;;;;;6.83;6.13;;;;;;;;;;6011144;29;20718;-73
2022/05/31 04:47:49;;;;;;;9.13;8.23;;;;;;;;;;6006513;29;20696;-74
2022/05/31 04:51:11;;;;;;;8.80;8.00;;;;;;;;;;6011360;29;20516;-73
2022/05/31 04:54:39;;;;;;;5.97;5.13;;;;;;;;;;6015334;29;20603;-73
2022/05/31 04:58:06;;;;;;;6.47;5.87;;;;;;;;;;6018042;29;20551;-74
2022/05/31 05:01:27;;;;;;;6.60;5.67;;;;;;;;;;6018194;29;21599;-73
2022/05/31 05:04:54;;;;;;;5.47;5.07;;;;;;;;;;6007010;29;20235;-74
2022/05/31 05:08:34;;;;;;;4.60;4.20;;;;;;;;;;6000985;29;20238;-70
2022/05/31 05:11:55;;;;;;;5.03;4.53;;;;;;;;;;6009352;29;20528;-75
2022/05/31 05:15:24;;;;;;;4.83;4.43;;;;;;;;;;6011381;29;20238;-75
2022/05/31 05:18:45;;;;;;;4.67;4.07;;;;;;;;;;6017206;29;20230;-75
2022/05/31 05:22:07;;;;;;;5.13;4.73;;;;;;;;;;6017755;29;20799;-76
2022/05/31 05:25:27;;;;;;;6.43;5.50;;;;;;;;;;6018689;29;20234;-75
2022/05/31 05:32:36;;;;;;;3.80;3.50;;;;;;;;;;6014737;29;20334;-75
2022/05/31 05:36:07;;;;;;;4.07;3.67;;;;;;;;;;6005480;29;20652;-75
2022/05/31 05:39:30;;;;;;;4.37;3.07;;;;;;;;;;5993376;29;20246;-76
2022/05/31 05:43:12;;;;;;;3.53;3.07;;;;;;;;;;6019352;29;20231;-74
2022/05/31 05:46:53;;;;;;;3.33;3.03;;;;;;;;;;6018737;29;20605;-75
2022/05/31 05:50:13;;;;;;;3.50;2.87;;;;;;;;;;6024256;29;20329;-76
2022/05/31 05:53:46;;;;;;;2.70;2.50;;;;;;;;;;6019968;29;20238;-76
2022/05/31 05:57:27;;;;;;;3.03;2.73;;;;;;;;;;6021053;29;20246;-76
2022/05/31 06:01:07;;;;;;;3.40;2.77;;;;;;;;;;6020835;29;20238;-77
2022/05/31 06:04:39;;;;;;;3.03;2.77;;;;;;;;;;6022933;29;20891;-76
2022/05/31 06:08:02;;;;;;;2.90;2.70;;;;;;;;;;6021021;29;20274;-76
2022/05/31 06:11:25;;;;;;;3.57;2.53;;;;;;;;;;6025784;29;20234;-76
2022/05/31 06:14:48;;;;;;;2.73;2.43;;;;;;;;;;6025779;29;20642;-76
2022/05/31 06:18:12;;;;;;;4.20;2.50;;;;;;;;;;6034575;29;20931;-76
2022/05/31 06:21:33;;;;;;;1.70;1.60;;;;;;;;;;6017605;29;20242;-77
2022/05/31 06:25:05;;;;;;;2.97;1.70;;;;;;;;;;6016863;29;20258;-75
2022/05/31 06:28:44;;;;;;;1.60;1.50;;;;;;;;;;6016030;29;20275;-76
2022/05/31 06:32:07;;;;;;;4.70;1.80;;;;;;;;;;6027426;29;20243;-77
2022/05/31 06:35:33;;;;;;;1.90;1.80;;;;;;;;;;6021070;29;20238;-77
2022/05/31 06:38:55;;;;;;;2.30;2.07;;;;;;;;;;6039872;29;20629;-76
2022/05/31 06:42:16;;;;;;;3.00;1.77;;;;;;;;;;6021677;29;20478;-75
2022/05/31 06:45:55;;;;;;;3.10;2.33;;;;;;;;;;6021279;29;20235;-75
2022/05/31 06:49:29;;;;;;;2.00;1.60;;;;;;;;;;6021676;29;20235;-79
2022/05/31 06:57:14;;;;;;;2.63;1.90;;;;;;;;;;6021471;29;20230;-76
2022/05/31 07:00:41;;;;;;;3.07;2.13;;;;;;;;;;6023467;29;20241;-76
2022/05/31 07:04:02;;;;;;;2.77;1.87;;;;;;;;;;6021458;29;20239;-77
2022/05/31 07:07:24;;;;;;;6.50;2.70;;;;;;;;;;6017052;29;20838;-76
2022/05/31 07:10:44;;;;;;;2.17;1.97;;;;;;;;;;6020868;29;20239;-76
2022/05/31 07:14:10;;;;;;;2.07;1.90;;;;;;;;;;6016257;29;20246;-77
2022/05/31 07:17:50;;;;;;;2.57;2.37;;;;;;;;;;6018818;29;20242;-78
2022/05/31 07:21:11;;;;;;;2.93;2.10;;;;;;;;;;6017744;29;20781;-77
2022/05/31 07:24:33;;;;;;;2.80;2.50;;;;;;;;;;6019211;29;20235;-77
2022/05/31 07:28:17;;;;;;;2.43;2.20;;;;;;;;;;6021917;29;20605;-77
2022/05/31 07:31:38;;;;;;;2.60;1.70;;;;;;;;;;6021393;29;20238;-76
2022/05/31 07:35:03;;;;;;;3.90;1.80;;;;;;;;;;6029288;29;20721;-77
2022/05/31 07:38:26;;;;;;;2.97;1.63;;;;;;;;;;6016070;29;20238;-75
2022/05/31 07:41:49;;;;;;;3.73;2.10;;;;;;;;;;6033072;29;20325;-78
2022/05/31 07:45:12;;;;;;;3.37;2.50;;;;;;;;;;6022321;29;20238;-77
2022/05/31 07:48:33;;;;;;;2.80;2.60;;;;;;;;;;6019832;29;20239;-77
2022/05/31 07:51:55;;;;;;;2.30;2.10;;;;;;;;;;6023536;29;20507;-77
2022/05/31 07:55:34;;;;;;;3.30;1.90;;;;;;;;;;6019625;29;21738;-77
2022/05/31 07:59:15;;;;;;;3.70;2.63;;;;;;;;;;6021656;29;20321;-78
2022/05/31 08:03:05;;;;;;;3.30;2.30;;;;;;;;;;5991871;29;20596;-76
2022/05/31 08:06:29;;;;;;;3.23;2.10;;;;;;;;;;6018442;29;20593;-76
2022/05/31 08:09:50;;;;;;;3.60;2.40;;;;;;;;;;5994780;29;20333;-76
2022/05/31 08:13:11;;;;;;;6.37;5.77;;;;;;;;;;6003526;29;20236;-77
2022/05/31 08:16:34;;;;;;;9.47;8.67;;;;;;;;;;6003080;29;20298;-76
2022/05/31 08:19:56;;;;;;;3.27;2.73;;;;;;;;;;6023714;29;20230;-76
2022/05/31 08:23:16;;;;;;;2.93;1.97;;;;;;;;;;6027387;29;20609;-77
2022/05/31 08:26:37;;;;;;;3.17;2.33;;;;;;;;;;6012473;29;20524;-77
2022/05/31 08:29:58;;;;;;;2.17;2.00;;;;;;;;;;6020702;29;20230;-76
2022/05/31 08:33:20;;;;;;;2.40;2.03;;;;;;;;;;6025929;29;20247;-76
2022/05/31 08:36:40;;;;;;;2.17;1.80;;;;;;;;;;6024912;29;20283;-76
2022/05/31 08:40:01;;;;;;;4.07;2.87;;;;;;;;;;6017864;29;20317;-77
2022/05/31 08:43:26;;;;;;;3.20;2.90;;;;;;;;;;6029455;29;20654;-76
2022/05/31 08:47:00;;;;;;;4.63;3.57;;;;;;;;;;6024754;29;20239;-77
2022/05/31 08:57:44;;;;;;;7.07;2.77;;;;;;;;;;6039144;29;20584;-78
2022/05/31 09:01:05;;;;;;;3.10;2.23;;;;;;;;;;6021082;29;20260;-76
2022/05/31 09:04:27;;;;;;;2.80;2.60;;;;;;;;;;6025722;29;20235;-76
2022/05/31 09:07:51;;;;;;;2.40;2.20;;;;;;;;;;6028457;29;20227;-76
2022/05/31 09:11:14;;;;;;;3.10;2.40;;;;;;;;;;6013830;29;20380;-77
2022/05/31 09:14:42;;;;;;;3.17;2.80;;;;;;;;;;6009563;29;20518;-77
2022/05/31 09:18:08;;;;;;;3.57;3.00;;;;;;;;;;6013990;29;20259;-77
2022/05/31 09:21:34;;;;;;;3.67;3.37;;;;;;;;;;6002811;29;20529;-77
2022/05/31 09:24:56;;;;;;;4.57;3.60;;;;;;;;;;6015521;29;20247;-75
2022/05/31 09:28:26;;;;;;;4.23;3.30;;;;;;;;;;6028833;29;20230;-75
2022/05/31 09:31:50;;;;;;;5.67;4.17;;;;;;;;;;6023544;29;20510;-77
2022/05/31 09:35:19;;;;;;;3.70;3.30;;;;;;;;;;6020010;29;20719;-76
2022/05/31 09:39:00;;;;;;;4.40;3.57;;;;;;;;;;6023941;29;20325;-77
2022/05/31 09:42:26;;;;;;;3.10;2.80;;;;;;;;;;6017185;29;20231;-77
2022/05/31 09:45:50;;;;;;;2.53;2.33;;;;;;;;;;6020957;29;20238;-77
2022/05/31 09:49:14;;;;;;;2.57;2.10;;;;;;;;;;6033323;29;21174;-76
2022/05/31 09:52:37;;;;;;;4.63;3.17;;;;;;;;;;6015177;29;20656;-77
2022/05/31 09:59:43;;;;;;;3.53;2.63;;;;;;;;;;6019405;29;20258;-77
2022/05/31 10:03:35;;;;;;;2.70;2.30;;;;;;;;;;6009711;29;20238;-79
2022/05/31 10:06:57;;;;;;;3.63;3.10;;;;;;;;;;6014870;29;20246;-76
2022/05/31 10:10:23;;;;;;;3.47;2.40;;;;;;;;;;6010430;29;20258;-77
2022/05/31 10:13:54;;;;;;;2.57;2.20;;;;;;;;;;6017747;29;20239;-77
2022/05/31 10:17:28;;;;;;;2.47;2.27;;;;;;;;;;6027132;29;20230;-76
2022/05/31 10:20:52;;;;;;;2.83;2.57;;;;;;;;;;6022440;29;20238;-76
2022/05/31 10:24:15;;;;;;;3.07;2.50;;;;;;;;;;6017232;29;20242;-76
2022/05/31 10:27:59;;;;;;;4.30;2.87;;;;;;;;;;6020552;29;20274;-77
2022/05/31 10:31:38;;;;;;;3.30;2.60;;;;;;;;;;6016880;29;20243;-77
2022/05/31 10:35:10;;;;;;;2.77;2.57;;;;;;;;;;6021987;29;20238;-77
2022/05/31 10:38:31;;;;;;;2.38;2.17;;;;;;;;;;6012707;29;20238;-77
2022/05/31 10:41:53;;;;;;;2.27;1.70;;;;;;;;;;6019516;29;20243;-77
2022/05/31 10:45:20;;;;;;;2.15;1.95;;;;;;;;;;6022342;29;20238;-76
2022/05/31 10:48:46;;;;;;;2.97;2.13;;;;;;;;;;5965845;29;20235;-76
2022/05/31 10:52:13;;;;;;;2.05;1.60;;;;;;;;;;6010605;29;20258;-78
2022/05/31 10:55:37;;;;;;;2.57;1.97;;;;;;;;;;6003940;29;20322;-75
2022/05/31 10:59:00;;;;;;;1.92;1.80;;;;;;;;;;5992559;29;20231;-76
2022/05/31 11:02:32;;;;;;;1.95;1.35;;;;;;;;;;6019459;29;20243;-75
2022/05/31 11:06:06;;;;;;;1.95;1.52;;;;;;;;;;6011410;29;20235;-76
2022/05/31 11:13:18;;;;;;;1.50;1.35;;;;;;;;;;6019619;29;20238;-77
2022/05/31 11:16:43;;;;;;;1.80;1.65;;;;;;;;;;6014663;29;20238;-76
2022/05/31 11:20:05;;;;;;;2.88;1.60;;;;;;;;;;6020862;29;20253;-76
2022/05/31 11:23:35;;;;;;;2.67;1.10;;;;;;;;;;5998784;29;20333;-76
2022/05/31 11:27:07;;;;;;;1.67;1.23;;;;;;;;;;6005744;29;20223;-75
2022/05/31 11:30:31;;;;;;;1.15;0.98;;;;;;;;;;6021312;29;20971;-76
2022/05/31 11:34:09;;;;;;;2.30;1.05;;;;;;;;;;6019547;29;20325;-75
2022/05/31 11:37:40;;;;;;;1.48;1.13;;;;;;;;;;6014367;29;20231;-76
2022/05/31 11:41:06;;;;;;;4.82;1.48;;;;;;;;;;6019622;29;20254;-75
2022/05/31 11:44:37;;;;;;;1.75;1.10;;;;;;;;;;6015478;29;20234;-76
2022/05/31 11:48:12;;;;;;;5.95;1.48;;;;;;;;;;6013731;29;20230;-75
2022/05/31 11:51:43;;;;;;;7.65;7.00;;;;;;;;;;6021353;29;20238;-76
2022/05/31 11:55:31;;;;;;;7.13;6.60;;;;;;;;;;6020385;29;20638;-76
2022/05/31 11:58:53;;;;;;;3.78;2.10;;;;;;;;;;6018459;29;20242;-76
2022/05/31 12:02:18;;;;;;;1.60;1.50;;;;;;;;;;6015141;29;20609;-76
2022/05/31 12:05:43;;;;;;;2.65;2.08;;;;;;;;;;6019842;29;20238;-76
2022/05/31 12:09:14;;;;;;;2.97;1.52;;;;;;;;;;6022739;29;20364;-75
2022/05/31 12:12:36;;;;;;;3.22;1.15;;;;;;;;;;6018822;29;20246;-75
2022/05/31 12:15:56;;;;;;;2.05;1.27;;;;;;;;;;6019091;29;20243;-77
2022/05/31 12:19:23;;;;;;;1.23;1.13;;;;;;;;;;6023934;29;20238;-75
2022/05/31 12:22:48;;;;;;;1.35;1.20;;;;;;;;;;6020681;29;20238;-76
2022/05/31 12:26:17;;;;;;;1.67;1.23;;;;;;;;;;6019341;29;20243;-75
2022/05/31 12:29:42;;;;;;;2.10;1.52;;;;;;;;;;6017604;29;20237;-76
2022/05/31 12:33:22;;;;;;;1.90;1.48;;;;;;;;;;6017930;29;20522;-75
2022/05/31 12:36:58;;;;;;;3.38;1.42;;;;;;;;;;6015205;29;20242;-75
2022/05/31 12:40:25;;;;;;;2.65;2.20;;;;;;;;;;6013984;29;20235;-75
2022/05/31 12:43:48;;;;;;;4.18;1.67;;;;;;;;;;6019558;29;20234;-74
2022/05/31 12:47:14;;;;;;;2.78;1.63;;;;;;;;;;6015431;29;20242;-76
2022/05/31 12:50:54;;;;;;;2.65;1.42;;;;;;;;;;6017651;29;20230;-77
2022/05/31 12:54:18;;;;;;;2.42;1.38;;;;;;;;;;6006796;29;20603;-76
2022/05/31 13:01:35;;;;;;;1.80;1.48;;;;;;;;;;6002356;29;20315;-76
2022/05/31 13:04:58;;;;;;;1.25;1.15;;;;;;;;;;6003778;29;20247;-75
2022/05/31 13:08:20;;;;;;;0.77;0.77;;;;;;;;;;6017563;29;20235;-74
2022/05/31 13:22:55;;;;;;;1.50;1.00;;;;;;;;;;6020564;29;20226;-71
2022/05/31 13:26:18;;;;;;;1.73;1.63;;;;;;;;;;6016295;29;20234;-72
2022/05/31 13:29:40;;;;;;;2.90;1.63;;;;;;;;;;6022387;29;20242;-72
2022/05/31 13:33:09;;;;;;;1.63;1.52;;;;;;;;;;6014607;29;20239;-72
2022/05/31 13:36:31;;;;;;;2.47;1.55;;;;;;;;;;6010474;29;20238;-72
2022/05/31 13:39:52;;;;;;;3.70;1.65;;;;;;;;;;6007607;29;20822;-72
2022/05/31 13:43:16;;;;;;;2.13;1.67;;;;;;;;;;6006850;29;20685;-73
2022/05/31 13:46:40;;;;;;;3.70;1.23;;;;;;;;;;6011594;29;20258;-72
2022/05/31 13:50:05;;;;;;;2.58;1.65;;;;;;;;;;6013057;29;20235;-71
2022/05/31 13:53:33;;;;;;;2.55;1.38;;;;;;;;;;6018958;29;20680;-71
2022/05/31 13:56:55;;;;;;;2.70;1.60;;;;;;;;;;6011201;29;20325;-72
2022/05/31 14:00:20;;;;;;;2.40;1.30;;;;;;;;;;6021091;29;21568;-72
2022/05/31 14:03:42;;;;;;;1.17;1.08;;;;;;;;;;6005958;29;20246;-71
2022/05/31 14:07:05;;;;;;;3.17;1.60;;;;;;;;;;6009279;29;20228;-74
2022/05/31 14:10:29;;;;;;;1.42;1.00;;;;;;;;;;6008237;29;20496;-75
2022/05/31 14:13:51;;;;;;;2.08;1.63;;;;;;;;;;6018393;29;20239;-75
2022/05/31 14:17:13;;;;;;;4.30;3.90;;;;;;;;;;6016135;29;20242;-75
2022/05/31 14:20:36;;;;;;;5.50;5.00;;;;;;;;;;6021670;29;20539;-74
2022/05/31 14:23:58;;;;;;;2.42;2.17;;;;;;;;;;6020906;29;20274;-75
2022/05/31 14:27:19;;;;;;;3.88;1.65;;;;;;;;;;6017502;29;20617;-74
2022/05/31 14:30:49;;;;;;;1.48;1.38;;;;;;;;;;6020962;29;20243;-75
2022/05/31 14:34:22;;;;;;;3.45;1.65;;;;;;;;;;6021728;29;20230;-74
2022/05/31 14:37:46;;;;;;;1.70;1.52;;;;;;;;;;6022425;29;20246;-77
2022/05/31 14:41:07;;;;;;;3.10;1.60;;;;;;;;;;6016730;29;20227;-76
2022/05/31 14:44:42;;;;;;;3.63;1.40;;;;;;;;;;6019582;29;20496;-76
2022/05/31 14:48:17;;;;;;;1.45;1.35;;;;;;;;;;6013868;29;20234;-73
2022/05/31 14:51:39;;;;;;;1.23;1.20;;;;;;;;;;6009484;29;20229;-75
2022/05/31 14:55:08;;;;;;;1.60;1.33;;;;;;;;;;6012015;29;20243;-73
2022/05/31 14:58:43;;;;;;;1.80;1.20;;;;;;;;;;6010559;29;20800;-73
2022/05/31 15:02:16;;;;;;;1.13;1.13;;;;;;;;;;6011250;29;20333;-74
2022/05/31 15:05:37;;;;;;;1.85;1.75;;;;;;;;;;6007795;29;20234;-73
2022/05/31 15:09:05;;;;;;;1.65;1.05;;;;;;;;;;5999984;29;20550;-77
2022/05/31 15:19:43;;;;;;;1.23;1.10;;;;;;;;;;6009927;29;20254;-74
2022/05/31 15:23:04;;;;;;;1.02;1.00;;;;;;;;;;6009877;29;20266;-72
2022/05/31 15:26:25;;;;;;;1.63;1.13;;;;;;;;;;6003920;29;20666;-73
2022/05/31 15:29:47;;;;;;;1.98;1.05;;;;;;;;;;5987454;29;20232;-74
2022/05/31 15:33:08;;;;;;;1.60;1.50;;;;;;;;;;5975396;29;20235;-73
2022/05/31 15:36:29;;;;;;;1.10;0.98;;;;;;;;;;6008122;29;20246;-75
2022/05/31 15:39:51;;;;;;;1.30;1.20;;;;;;;;;;6002013;29;20239;-74
2022/05/31 15:43:12;;;;;;;1.40;1.15;;;;;;;;;;5998134;29;20574;-75
2022/05/31 15:46:35;;;;;;;2.50;1.83;;;;;;;;;;6003411;29;20265;-76
2022/05/31 15:49:56;;;;;;;1.48;0.95;;;;;;;;;;5989579;29;20242;-75
2022/05/31 15:53:16;;;;;;;1.10;1.08;;;;;;;;;;6008353;29;20231;-76
2022/05/31 15:56:37;;;;;;;3.45;1.27;;;;;;;;;;5994560;29;20246;-78
2022/05/31 15:59:58;;;;;;;1.67;1.08;;;;;;;;;;6009243;29;20274;-75
2022/05/31 16:03:19;;;;;;;1.08;0.90;;;;;;;;;;6002511;29;20240;-75
2022/05/31 16:06:40;;;;;;;2.35;1.20;;;;;;;;;;5982280;29;20622;-75
2022/05/31 16:10:01;;;;;;;1.95;1.55;;;;;;;;;;6005744;29;20250;-73
2022/05/31 16:13:22;;;;;;;1.40;1.00;;;;;;;;;;6007629;29;20809;-76
2022/05/31 16:16:43;;;;;;;1.77;1.10;;;;;;;;;;5991529;29;21336;-74
2022/05/31 16:20:05;;;;;;;1.75;1.50;;;;;;;;;;6003618;29;20489;-76
2022/05/31 16:23:26;;;;;;;1.08;0.88;;;;;;;;;;5992485;29;20278;-75
2022/05/31 16:26:46;;;;;;;2.17;1.15;;;;;;;;;;6010844;29;20238;-74
2022/05/31 16:30:07;;;;;;;1.67;1.20;;;;;;;;;;5996016;29;20325;-76
2022/05/31 16:33:28;;;;;;;6.38;5.70;;;;;;;;;;5994151;29;20250;-73
2022/05/31 16:36:51;;;;;;;4.07;2.47;;;;;;;;;;5981919;29;20251;-75
2022/05/31 16:43:52;;;;;;;2.97;1.80;;;;;;;;;;6006417;29;20732;-75
2022/05/31 16:47:12;;;;;;;0.95;0.85;;;;;;;;;;6011279;29;20602;-74
2022/05/31 16:50:33;;;;;;;2.17;1.50;;;;;;;;;;6013430;29;20254;-71
2022/05/31 16:53:56;;;;;;;1.98;1.00;;;;;;;;;;6001023;29;20254;-74
2022/05/31 16:57:17;;;;;;;1.92;1.10;;;;;;;;;;6019347;29;20235;-73
2022/05/31 17:00:37;;;;;;;3.08;1.33;;;;;;;;;;6014398;29;20520;-74
2022/05/31 17:04:00;;;;;;;0.90;0.90;;;;;;;;;;6005696;29;20283;-74
2022/05/31 17:14:39;;;;;;;2.27;1.80;;;;;;;;;;6006618;29;20238;-72
2022/05/31 17:18:00;;;;;;;2.10;1.50;;;;;;;;;;6019674;29;20234;-74
2022/05/31 17:21:22;;;;;;;3.77;1.80;;;;;;;;;;6010922;29;20246;-73
2022/05/31 17:24:43;;;;;;;1.58;1.33;;;;;;;;;;6003870;29;20247;-74
2022/05/31 17:28:07;;;;;;;2.70;1.25;;;;;;;;;;6017439;29;20795;-71
2022/05/31 17:31:28;;;;;;;4.93;1.40;;;;;;;;;;5993325;29;20248;-73
2022/05/31 17:34:49;;;;;;;1.70;1.17;;;;;;;;;;6017415;29;20246;-72
2022/05/31 17:38:12;;;;;;;2.75;1.45;;;;;;;;;;6009361;29;20329;-72
2022/05/31 17:41:34;;;;;;;3.27;1.00;;;;;;;;;;6009495;29;20262;-71
2022/05/31 17:44:58;;;;;;;1.50;1.33;;;;;;;;;;5987953;29;20227;-71
2022/05/31 17:48:20;;;;;;;1.48;1.10;;;;;;;;;;6004498;29;20560;-71
2022/05/31 17:51:42;;;;;;;1.75;1.02;;;;;;;;;;6007937;29;20792;-72
2022/05/31 17:55:03;;;;;;;2.23;1.10;;;;;;;;;;6013989;29;20231;-72
2022/05/31 17:58:23;;;;;;;1.67;1.02;;;;;;;;;;5991310;29;21771;-72
2022/05/31 18:01:45;;;;;;;1.23;1.03;;;;;;;;;;5994959;29;20235;-74
2022/05/31 18:05:07;;;;;;;2.67;1.17;;;;;;;;;;6014472;29;20279;-73
2022/05/31 18:08:29;;;;;;;2.03;1.45;;;;;;;;;;5996268;29;20235;-75
2022/05/31 18:11:50;;;;;;;0.98;0.80;;;;;;;;;;6016177;29;20632;-72
2022/05/31 18:15:10;;;;;;;1.13;1.00;;;;;;;;;;6004445;29;20240;-72
2022/05/31 18:18:32;;;;;;;1.10;1.00;;;;;;;;;;6014139;29;20306;-75
2022/05/31 18:21:53;;;;;;;1.02;1.02;;;;;;;;;;6006514;29;20238;-72
2022/05/31 18:25:17;;;;;;;1.33;1.10;;;;;;;;;;6011465;29;20326;-71
2022/05/31 18:32:17;;;;;;;1.73;1.40;;;;;;;;;;6011190;29;20234;-71
2022/05/31 18:35:41;;;;;;;2.63;2.30;;;;;;;;;;5991919;29;20230;-72
2022/05/31 18:39:10;;;;;;;2.80;2.60;;;;;;;;;;6004721;29;20227;-73
2022/05/31 18:42:32;;;;;;;2.03;1.92;;;;;;;;;;5996557;29;22125;-70
2022/05/31 18:45:54;;;;;;;1.30;1.20;;;;;;;;;;6009290;29;20274;-70
2022/05/31 18:49:14;;;;;;;1.77;1.27;;;;;;;;;;5998141;29;20228;-72
2022/05/31 18:52:36;;;;;;;1.93;1.40;;;;;;;;;;6004751;29;20723;-70
2022/05/31 18:55:57;;;;;;;1.77;1.60;;;;;;;;;;6012874;29;20242;-70
2022/05/31 18:59:18;;;;;;;1.87;1.57;;;;;;;;;;6012325;29;20239;-72
2022/05/31 19:02:40;;;;;;;2.67;1.77;;;;;;;;;;6009590;29;20239;-71
2022/05/31 19:06:01;;;;;;;2.83;1.80;;;;;;;;;;6005827;29;20234;-73
2022/05/31 19:09:23;;;;;;;2.07;1.83;;;;;;;;;;6005843;29;20241;-72
2022/05/31 19:12:45;;;;;;;2.40;2.20;;;;;;;;;;5995667;29;20235;-70
2022/05/31 19:16:06;;;;;;;2.27;1.77;;;;;;;;;;5990976;29;20239;-70
2022/05/31 19:19:27;;;;;;;1.60;1.43;;;;;;;;;;5995844;29;20580;-69
2022/05/31 19:22:48;;;;;;;2.87;2.20;;;;;;;;;;5996300;29;20843;-70
2022/05/31 19:26:10;;;;;;;2.57;2.27;;;;;;;;;;6010476;29;20618;-69
2022/05/31 19:29:31;;;;;;;3.47;3.10;;;;;;;;;;6011196;29;20610;-70
2022/05/31 19:32:53;;;;;;;2.57;2.37;;;;;;;;;;6007996;29;20262;-70
2022/05/31 19:36:14;;;;;;;3.47;2.87;;;;;;;;;;6011233;29;20514;-69
2022/05/31 19:39:35;;;;;;;3.77;3.40;;;;;;;;;;6011402;29;20238;-69
2022/05/31 19:42:59;;;;;;;6.03;5.27;;;;;;;;;;6007040;29;20239;-70
2022/05/31 19:46:20;;;;;;;5.80;5.20;;;;;;;;;;6004414;29;20242;-71
2022/05/31 19:49:40;;;;;;;4.00;3.50;;;;;;;;;;6006855;29;20230;-74
2022/05/31 19:53:01;;;;;;;4.10;3.70;;;;;;;;;;6006193;29;20505;-72
2022/05/31 19:56:21;;;;;;;5.37;4.20;;;;;;;;;;5968244;29;20243;-72
2022/05/31 19:59:43;;;;;;;5.10;4.40;;;;;;;;;;6009350;29;20266;-73
2022/05/31 20:03:04;;;;;;;2.87;2.57;;;;;;;;;;6013877;29;20235;-75
2022/05/31 20:06:24;;;;;;;2.97;2.57;;;;;;;;;;6011174;29;20242;-76
2022/05/31 20:10:03;;;;;;;2.50;2.30;;;;;;;;;;6013563;29;20664;-77
2022/05/31 20:13:24;;;;;;;4.00;3.60;;;;;;;;;;6012049;29;20234;-71
2022/05/31 20:16:46;;;;;;;3.47;3.17;;;;;;;;;;6002779;29;20247;-76
2022/05/31 20:20:09;;;;;;;4.20;3.57;;;;;;;;;;6014527;29;20231;-77
2022/05/31 20:23:30;;;;;;;4.37;3.97;;;;;;;;;;6003805;29;20559;-72
2022/05/31 20:26:51;;;;;;;5.33;3.37;;;;;;;;;;6011149;29;20279;-74
2022/05/31 20:30:13;;;;;;;3.57;3.17;;;;;;;;;;6011340;29;20333;-74
2022/05/31 20:33:35;;;;;;;4.43;3.00;;;;;;;;;;6004997;29;20231;-74
2022/05/31 20:36:56;;;;;;;3.77;2.87;;;;;;;;;;6010005;29;20230;-74
2022/05/31 20:40:18;;;;;;;6.10;2.60;;;;;;;;;;6004867;29;21887;-74
2022/05/31 20:43:38;;;;;;;3.40;3.10;;;;;;;;;;5993096;29;20234;-73
2022/05/31 20:46:59;;;;;;;3.60;2.93;;;;;;;;;;6004106;29;20228;-77
2022/05/31 20:50:21;;;;;;;3.70;2.40;;;;;;;;;;6004046;29;20239;-72
2022/05/31 20:53:42;;;;;;;2.63;2.43;;;;;;;;;;5998354;29;20258;-72
2022/05/31 20:57:02;;;;;;;4.70;3.13;;;;;;;;;;6003269;29;20326;-71
2022/05/31 21:00:23;;;;;;;3.00;2.70;;;;;;;;;;5999983;29;20234;-72
2022/05/31 21:03:44;;;;;;;3.40;3.10;;;;;;;;;;5972156;29;20591;-74
2022/05/31 21:07:06;;;;;;;5.13;2.83;;;;;;;;;;6000719;29;20230;-75
2022/05/31 21:10:29;;;;;;;3.73;2.40;;;;;;;;;;5997205;29;20236;-73
2022/05/31 21:13:50;;;;;;;2.90;2.60;;;;;;;;;;6001093;29;20238;-75
2022/05/31 21:17:13;;;;;;;3.17;2.37;;;;;;;;;;6005526;29;20246;-73
2022/05/31 21:20:34;;;;;;;2.80;2.50;;;;;;;;;;6001955;29;20230;-73
2022/05/31 21:23:56;;;;;;;2.40;2.20;;;;;;;;;;6001573;29;20325;-73
2022/05/31 21:27:16;;;;;;;2.93;2.33;;;;;;;;;;6002797;29;20242;-73
2022/05/31 21:30:37;;;;;;;2.77;2.40;;;;;;;;;;6002223;29;20275;-73